x

Nickerson Bank (44251) Wave Buoy

11:00am - Tue 26th May 2015 All times are UTC.

  • Sig Wave height 4.6ft
  • Peak Period 8s
  • Wind
    11mph, 13mph gusts
  • Sea Temp 43°f
  • Air Temp 40°f
  • Sea Pressure 1025.9mb

More Historic Weather Station data

Upgrade to MSW Pro to gain access to the past 30 days of data for over 8000 Wavebouys and Weather Stations around the globe.

Join Pro

Comparision Forecast

View Surf forecast
   
Tue 05/26 11:00am 4.5ft 8s 11 13 mph 1025.9mb 43f 40f
10:00am 5ft 8s 11 13 mph 1025.6mb 42f 40f
9:00am 4.5ft 8s 9
mph
1025.5mb 42f 40f
8:00am 5ft 8s 9 11 mph 1024.9mb 43f 40f
7:00am 5.5ft 8s 13
mph
1024.4mb 43f 41f
6:00am 5ft 8s 13 16 mph 1024.8mb 42f 41f
5:00am 5.5ft 8s 13 16 mph 1025mb 42f 41f
4:00am 5.5ft 8s 13 16 mph 1025mb 42f 40f
3:00am 6ft 8s 13
mph
1025.2mb 42f 40f
2:00am 5.5ft 8s 13
mph
1025.3mb 42f 40f
1:00am 6ft 6s 11
mph
1025.8mb 42f 40f
12:00am 6ft 8s 11 13 mph 1025.6mb 42f 41f
Mon 05/25 11:00pm 6.5ft 8s 18 20 mph 1024.9mb 42f 42f
10:00pm 6ft 7s 16 18 mph 1025.1mb 42f 41f
9:00pm 6ft 8s 18 20 mph 1024.4mb 42f 42f
8:00pm 6ft 8s 18 22 mph 1024.3mb 42f 43f
7:00pm 6.5ft 8s 20 22 mph 1024.3mb 42f 43f
6:00pm 7ft 8s 16 18 mph 1024.7mb 42f 42f
5:00pm 7ft 8s 18 22 mph 1024.6mb 42f 43f
4:00pm 7ft 8s 18 22 mph 1025.2mb 42f 43f
3:00pm 7ft 8s 20 22 mph 1025.2mb 42f 42f
2:00pm 7.5ft 8s 20 25 mph 1025.2mb 42f 42f
1:00pm 7.5ft 8s 22 27 mph 1025.1mb 42f 42f
12:00pm 8ft 8s 20 25 mph 1025.4mb 42f 42f
11:00am 8.5ft 9s 22 25 mph 1025.5mb 42f 42f
10:00am 7.5ft 8s 22 29 mph 1025.3mb 42f 43f
9:00am 8.5ft 7s 22 27 mph 1025.2mb 42f 42f
8:00am 8.5ft 8s 25 29 mph 1024.8mb 42f 42f
7:00am 8.5ft 8s 25 29 mph 1024.5mb 42f 42f
6:00am 8.5ft 8s 25 29 mph 1024.7mb 42f 42f
5:00am 9ft 8s 25 29 mph 1024.6mb 42f 42f
4:00am 9ft 8s 25 29 mph 1024.7mb 42f 42f
3:00am 8ft 10s 25 31 mph 1024.9mb 42f 42f
2:00am 8ft 9s 27 31 mph 1024.8mb 42f 43f
1:00am 8.5ft 10s 25 29 mph 1024.7mb 42f 41f
12:00am 8ft 9s 22 27 mph 1024.8mb 42f 41f
Sun 05/24 11:00pm 9ft 9s 22 27 mph 1024.3mb 42f 41f
10:00pm 9ft 9s 22 25 mph 1024mb 42f 41f
9:00pm 9ft 10s 22 27 mph 1023.8mb 43f 41f
8:00pm 9ft 10s 20 25 mph 1023.6mb 43f 40f
7:00pm 9ft 9s 22 25 mph 1023.3mb 43f 41f
6:00pm 9ft 9s 22 27 mph 1023.1mb 43f 40f
5:00pm 9ft 10s 22 29 mph 1022.5mb 43f 40f
4:00pm 9.5ft 9s 22 27 mph 1022.3mb 43f 40f
3:00pm 9.5ft 8s 22 27 mph 1021.7mb 43f 40f
2:00pm 9.5ft 9s 25 29 mph 1021.1mb 43f 40f
1:00pm 9ft 9s 20 25 mph 1021.1mb 43f 40f
12:00pm 9ft 10s 20 25 mph 1020.6mb 42f 40f
11:00am 9.5ft 8s 22 27 mph 1019.8mb 42f 40f
10:00am 9ft 11s 20 25 mph 1019.4mb 42f 39f
9:00am 8.5ft 8s 22 27 mph 1018.6mb 42f 39f
8:00am 9.5ft 10s 22 29 mph 1017.8mb 42f 38f
7:00am 10ft 10s 25 29 mph 1017.1mb 42f 38f
6:00am 9.5ft 10s 25 31 mph 1016.3mb 42f 39f
5:00am 10ft 10s 22 27 mph 1015.5mb 42f 39f
4:00am 10ft 11s 25 31 mph 1014.5mb 42f 39f
3:00am 10.5ft 11s 27 34 mph 1013.9mb 42f 40f
2:00am 9ft 11s 22 29 mph 1013.2mb 42f 42f
1:00am 9ft 10s 22 27 mph 1013.6mb 42f 41f
12:00am 9ft 10s 13 16 mph 1014.5mb 43f 40f
Sat 05/23 11:00pm 8.5ft 10s 16 18 mph 1015.6mb 43f 40f
10:00pm 10ft 9s 16 18 mph 1016.1mb 43f 40f
9:00pm 9ft 8s 11 13 mph 1016.6mb 42f 38f
8:00pm 9ft 9s 13 16 mph 1016.8mb 42f 39f
7:00pm 10.5ft 9s 16 20 mph 1016.9mb 42f 39f
6:00pm 10ft 8s 20 25 mph 1016.5mb 42f 39f
5:00pm 10.5ft 9s 22 27 mph 1016mb 42f 39f
4:00pm 11.5ft 8s 22 29 mph 1015.1mb 42f 39f
2:00pm 11.5ft 9s 27 31 mph 1013.1mb 41f 40f
1:00pm 11.5ft 8s 29 34 mph 1011.4mb 41f 39f
12:00pm 12.5ft 9s 29 36 mph 1009.2mb 41f 40f
11:00am 12.5ft 8s 34 40 mph 1006.8mb 41f 40f
10:00am 11ft 8s 31 38 mph 1004.5mb 41f 40f
9:00am 11ft 8s 27 31 mph 1003.1mb 41f 43f
8:00am 11ft 8s 29 36 mph 1002.4mb 41f 46f
7:00am 10ft 8s 25 29 mph 1002.9mb 41f 45f
6:00am 11ft 8s 25 31 mph 1004.2mb 41f 45f
5:00am 9ft 6s 29 36 mph 1005mb 41f 43f
4:00am 7.5ft 5s 31 36 mph 1006.7mb 41f 42f
3:00am 6ft 4s 34 40 mph 1008.9mb 41f 40f
2:00am 4.5ft 7s 31 38 mph 1012mb 42f 40f
1:00am 3.5ft 7s 22 25 mph 1016mb 41f 39f
12:00am 3.5ft 8s 13 16 mph 1018.7mb 41f 40f
Fri 05/22 11:00pm 4ft 8s 16 18 mph 1018.8mb 42f 41f
10:00pm 3.5ft 8s 16 18 mph 1020.1mb 42f 40f
9:00pm 4.5ft 8s 13
mph
1021.3mb 42f 40f
8:00pm 4ft 8s 9 11 mph 1023.2mb 42f 40f
7:00pm 4.5ft 7s 9 11 mph 1022.7mb 42f 40f
6:00pm 4.5ft 7s 7 9 mph 1023.2mb 42f 40f
5:00pm 4ft 6s 9
mph
1022.7mb 42f 40f
4:00pm 4ft 7s 9
mph
1023.7mb 42f 40f
3:00pm 4.5ft 7s 4 7 mph 1023.8mb 42f 40f
2:00pm 4ft 7s 9
mph
1023.5mb 42f 40f
1:00pm 3.5ft 6s 4 7 mph 1023mb 42f 40f